createdAt,value
2018-11-25T00:00:12.579Z,112.83
2018-11-25T00:02:39.980Z,79.03
2018-11-25T00:05:32.573Z,105.37
2018-11-25T00:07:37.766Z,97.67
2018-11-25T00:10:05.201Z,96.60
2018-11-25T00:12:32.633Z,126.53
2018-11-25T00:15:00.089Z,77.57
2018-11-25T00:17:27.509Z,119.60
2018-11-25T00:19:54.966Z,155.17
2018-11-25T00:22:22.366Z,110.43
2018-11-25T00:24:49.795Z,99.17
2018-11-25T00:27:17.218Z,99.13
2018-11-25T00:29:44.644Z,91.70
2018-11-25T00:32:12.068Z,160.87
2018-11-25T00:34:39.483Z,97.93
2018-11-25T00:37:06.927Z,103.87
2018-11-25T00:39:34.389Z,155.27
2018-11-25T00:42:01.828Z,160.43
2018-11-25T00:44:29.231Z,98.13
2018-11-25T00:46:56.689Z,114.80
2018-11-25T00:49:24.097Z,123.30
2018-11-25T00:51:51.558Z,141.50
2018-11-25T00:54:18.975Z,105.80
2018-11-25T00:56:46.404Z,204.70
2018-11-25T00:59:13.830Z,177.13
2018-11-25T01:01:41.263Z,90.43
2018-11-25T01:04:08.702Z,125.27
2018-11-25T01:06:36.114Z,180.93
2018-11-25T01:09:03.699Z,216.03
2018-11-25T01:11:31.139Z,113.73
2018-11-25T01:13:58.564Z,319.23
2018-11-25T01:16:25.979Z,172.83
2018-11-25T01:18:53.430Z,130.93
2018-11-25T01:21:20.859Z,162.80
2018-11-25T01:23:48.346Z,147.07
2018-11-25T01:26:19.625Z,168.93
2018-11-25T01:28:47.089Z,98.30
2018-11-25T01:31:14.494Z,91.80
2018-11-25T01:33:42.124Z,165.90
2018-11-25T01:36:09.476Z,187.03
2018-11-25T01:38:36.910Z,192.77
2018-11-25T01:41:04.347Z,155.57
2018-11-25T01:43:31.753Z,216.37
2018-11-25T01:45:59.196Z,177.83
2018-11-25T01:48:26.650Z,178.00
2018-11-25T01:50:54.111Z,242.93
2018-11-25T01:53:21.510Z,280.80
2018-11-25T01:55:48.953Z,295.17
2018-11-25T01:58:16.340Z,279.60
2018-11-25T02:00:43.756Z,223.23
2018-11-25T02:03:11.211Z,210.23
2018-11-25T02:05:38.608Z,218.30
2018-11-25T02:08:06.041Z,111.97
2018-11-25T02:10:33.458Z,172.50
2018-11-25T02:13:00.886Z,263.43
2018-11-25T02:15:28.338Z,160.83
2018-11-25T02:17:55.761Z,250.23
2018-11-25T02:20:23.219Z,153.40
2018-11-25T02:22:50.646Z,221.83
2018-11-25T02:25:18.069Z,377.73
2018-11-25T02:27:45.505Z,263.40
2018-11-25T02:30:12.918Z,137.60
2018-11-25T02:32:40.369Z,251.97
2018-11-25T02:35:07.802Z,327.37
2018-11-25T02:37:35.240Z,233.60
2018-11-25T02:40:02.673Z,326.83
2018-11-25T02:42:30.124Z,133.23
2018-11-25T02:44:57.549Z,130.37
2018-11-25T02:47:24.988Z,366.37
2018-11-25T02:49:52.435Z,236.37
2018-11-25T02:52:19.918Z,393.07
2018-11-25T02:54:47.380Z,280.53
2018-11-25T02:57:14.803Z,339.40
2018-11-25T02:59:42.243Z,356.90
2018-11-25T03:02:09.650Z,295.30
2018-11-25T03:04:37.078Z,287.90
2018-11-25T03:07:04.494Z,389.13
2018-11-25T03:09:31.934Z,309.87
2018-11-25T03:11:59.357Z,300.13
2018-11-25T03:14:26.792Z,302.90
2018-11-25T03:16:54.200Z,232.87
2018-11-25T03:19:21.641Z,297.67
2018-11-25T03:21:49.071Z,381.03
2018-11-25T03:24:16.511Z,203.07
2018-11-25T03:26:43.919Z,167.30
2018-11-25T03:29:11.353Z,208.03
2018-11-25T03:31:38.783Z,370.60
2018-11-25T03:34:06.199Z,291.50
2018-11-25T03:36:33.613Z,249.90
2018-11-25T03:39:01.069Z,551.53
2018-11-25T03:41:28.504Z,203.87
2018-11-25T03:43:55.914Z,175.70
2018-11-25T03:46:23.360Z,276.07
2018-11-25T03:48:50.789Z,363.70
2018-11-25T03:51:18.228Z,354.60
2018-11-25T03:53:45.636Z,124.07
2018-11-25T03:56:13.083Z,176.07
2018-11-25T03:58:40.555Z,406.57
2018-11-25T04:01:07.975Z,555.57
2018-11-25T04:03:35.408Z,234.63
2018-11-25T04:06:02.813Z,317.97
2018-11-25T04:08:30.241Z,272.60
2018-11-25T04:10:57.644Z,358.53
2018-11-25T04:13:25.079Z,214.77
2018-11-25T04:15:52.541Z,321.33
2018-11-25T04:18:19.951Z,228.43
2018-11-25T04:20:47.402Z,290.60
2018-11-25T04:23:14.810Z,349.00
2018-11-25T04:25:42.267Z,335.37
2018-11-25T04:28:09.665Z,334.30
2018-11-25T04:30:37.117Z,261.20
2018-11-25T04:33:04.529Z,328.63
2018-11-25T04:35:31.955Z,343.80
2018-11-25T04:37:59.387Z,427.90
2018-11-25T04:40:26.829Z,402.70
2018-11-25T04:42:54.249Z,279.83
2018-11-25T04:45:21.655Z,362.07
2018-11-25T04:47:49.109Z,443.20
2018-11-25T04:50:16.547Z,431.07
2018-11-25T04:52:43.941Z,366.93
2018-11-25T04:55:11.386Z,441.33
2018-11-25T04:57:38.794Z,312.03
2018-11-25T05:00:06.238Z,278.83
2018-11-25T05:02:33.658Z,283.50
2018-11-25T05:05:01.119Z,196.40
2018-11-25T05:07:28.548Z,391.57
2018-11-25T05:09:55.976Z,406.90
2018-11-25T05:12:23.405Z,367.77
2018-11-25T05:14:50.830Z,524.27
2018-11-25T05:17:18.293Z,250.37
2018-11-25T05:19:45.708Z,393.27
2018-11-25T05:22:13.147Z,279.23
2018-11-25T05:24:40.541Z,395.57
2018-11-25T05:27:07.964Z,205.73
2018-11-25T05:29:35.394Z,444.03
2018-11-25T05:32:02.800Z,373.07
2018-11-25T05:34:30.251Z,390.90
2018-11-25T05:36:57.688Z,312.33
2018-11-25T05:39:25.128Z,191.43
2018-11-25T05:41:52.580Z,172.43
2018-11-25T05:44:20.005Z,265.03
2018-11-25T05:46:47.476Z,425.53
2018-11-25T05:49:14.889Z,196.73
2018-11-25T05:51:42.330Z,328.30
2018-11-25T05:54:09.753Z,418.27
2018-11-25T05:56:37.194Z,226.57
2018-11-25T05:59:04.610Z,309.00
2018-11-25T06:01:32.026Z,400.80
2018-11-25T06:03:59.435Z,402.50
2018-11-25T06:06:26.860Z,467.23
2018-11-25T06:08:54.284Z,208.10
2018-11-25T06:11:21.720Z,220.20
2018-11-25T06:13:49.126Z,231.47
2018-11-25T06:16:16.554Z,395.97
2018-11-25T06:18:43.984Z,275.10
2018-11-25T06:21:11.387Z,443.73
2018-11-25T06:23:38.828Z,480.00
2018-11-25T06:26:06.231Z,441.80
2018-11-25T06:28:33.677Z,385.23
2018-11-25T06:31:01.110Z,252.50
2018-11-25T06:33:28.556Z,175.23
2018-11-25T06:35:55.960Z,238.53
2018-11-25T06:38:24.420Z,211.63
2018-11-25T06:40:50.806Z,242.67
2018-11-25T06:43:18.240Z,190.97
2018-11-25T06:45:45.646Z,209.67
2018-11-25T06:48:13.099Z,215.50
2018-11-25T06:50:40.502Z,204.60
2018-11-25T06:53:07.954Z,238.23
2018-11-25T06:55:35.404Z,235.70
2018-11-25T06:58:02.845Z,228.53
2018-11-25T07:00:30.288Z,220.43
2018-11-25T07:02:57.721Z,199.33
2018-11-25T07:05:25.143Z,210.97
2018-11-25T07:07:52.575Z,156.50
2018-11-25T07:10:20.023Z,181.27
2018-11-25T07:12:47.432Z,259.10
2018-11-25T07:15:14.860Z,185.53
2018-11-25T07:17:42.268Z,235.33
2018-11-25T07:20:09.720Z,238.47
2018-11-25T07:22:37.182Z,131.73
2018-11-25T07:25:04.584Z,223.93
2018-11-25T07:27:32.026Z,286.93
2018-11-25T07:29:59.464Z,155.33
2018-11-25T07:32:26.889Z,205.20
2018-11-25T07:34:54.307Z,245.50
2018-11-25T07:37:21.738Z,195.03
2018-11-25T07:39:49.155Z,263.63
2018-11-25T07:42:16.627Z,318.17
2018-11-25T07:44:44.030Z,297.40
2018-11-25T07:47:11.445Z,332.53
2018-11-25T07:49:44.096Z,305.97
2018-11-25T07:52:11.551Z,225.13
2018-11-25T07:54:38.998Z,231.00
2018-11-25T07:57:12.465Z,286.67
2018-11-25T07:59:39.910Z,224.07
2018-11-25T08:02:07.343Z,207.90
2018-11-25T08:04:34.786Z,170.03
2018-11-25T08:07:02.219Z,240.43
2018-11-25T08:09:29.653Z,234.97
2018-11-25T08:11:57.109Z,193.40
2018-11-25T08:14:31.721Z,216.10
2018-11-25T08:16:57.202Z,255.03
2018-11-25T08:19:24.783Z,162.43
2018-11-25T08:21:52.520Z,183.97
2018-11-25T08:24:19.983Z,125.13
2018-11-25T08:26:47.375Z,148.20
2018-11-25T08:29:14.788Z,138.80
2018-11-25T08:31:42.770Z,118.83
2018-11-25T08:34:10.202Z,116.13
2018-11-25T08:36:37.635Z,109.97
2018-11-25T08:39:05.115Z,141.90
2018-11-25T08:41:32.523Z,116.17
2018-11-25T08:43:59.943Z,117.93
2018-11-25T08:46:27.360Z,98.60
2018-11-25T08:48:54.793Z,122.63
2018-11-25T08:51:22.210Z,99.93
2018-11-25T08:53:49.647Z,120.13
2018-11-25T08:56:17.082Z,137.83
2018-11-25T08:58:44.532Z,95.17
2018-11-25T09:01:11.969Z,84.80
2018-11-25T09:03:39.407Z,94.83
2018-11-25T09:06:06.826Z,85.80
2018-11-25T09:08:34.267Z,87.83
2018-11-25T09:11:01.696Z,75.37
2018-11-25T09:13:29.121Z,93.80
2018-11-25T09:15:56.566Z,75.90
2018-11-25T09:18:23.978Z,81.80
2018-11-25T09:20:51.392Z,81.83
2018-11-25T09:23:18.827Z,98.67
2018-11-25T09:25:46.260Z,73.60
2018-11-25T09:28:13.713Z,77.07
2018-11-25T09:30:41.138Z,83.03
2018-11-25T09:33:08.556Z,64.00
2018-11-25T09:35:35.994Z,62.50
2018-11-25T09:38:03.420Z,77.03
2018-11-25T09:40:30.893Z,79.03
2018-11-25T09:42:58.297Z,85.73
2018-11-25T09:45:25.716Z,143.47
2018-11-25T09:47:53.145Z,92.97
2018-11-25T09:50:20.580Z,108.03
2018-11-25T09:52:48.021Z,103.27
2018-11-25T09:55:15.426Z,99.43
2018-11-25T09:57:42.872Z,83.23
2018-11-25T10:00:10.317Z,64.23
2018-11-25T10:02:37.761Z,72.63
2018-11-25T10:05:05.164Z,60.73
2018-11-25T10:07:32.598Z,68.67
2018-11-25T10:10:00.015Z,74.60
2018-11-25T10:12:27.478Z,82.03
2018-11-25T10:14:54.888Z,76.77
2018-11-25T10:17:22.321Z,77.33
2018-11-25T10:19:49.770Z,82.60
2018-11-25T10:22:17.211Z,73.27
2018-11-25T10:24:44.617Z,75.53
2018-11-25T10:27:12.048Z,70.70
2018-11-25T10:29:39.443Z,68.67
2018-11-25T10:32:07.004Z,70.53
2018-11-25T10:34:34.411Z,78.67
2018-11-25T10:37:01.839Z,76.83
2018-11-25T10:39:29.262Z,72.23
2018-11-25T10:41:56.668Z,77.43
2018-11-25T10:44:24.156Z,71.73
2018-11-25T10:46:51.524Z,70.90
2018-11-25T10:49:18.978Z,68.33
2018-11-25T10:51:46.566Z,82.57
2018-11-25T10:54:13.997Z,87.80
2018-11-25T10:56:41.408Z,82.33
2018-11-25T10:59:08.864Z,82.67
2018-11-25T11:01:36.286Z,93.10
2018-11-25T11:04:03.728Z,72.27
2018-11-25T11:06:31.146Z,69.50
2018-11-25T11:08:58.578Z,82.30
2018-11-25T11:11:25.988Z,79.27
2018-11-25T11:13:53.424Z,82.30
2018-11-25T11:16:20.832Z,93.40
2018-11-25T11:18:48.272Z,91.97
2018-11-25T11:21:15.691Z,85.73
2018-11-25T11:23:43.162Z,82.40
2018-11-25T11:26:10.609Z,70.57
2018-11-25T11:28:38.012Z,78.00
2018-11-25T11:31:05.444Z,68.10
2018-11-25T11:33:32.887Z,66.07
2018-11-25T11:36:00.312Z,63.30
2018-11-25T11:38:27.735Z,82.07
2018-11-25T11:40:55.173Z,95.77
2018-11-25T11:43:22.609Z,65.00
2018-11-25T11:45:50.072Z,65.83
2018-11-25T11:48:17.511Z,65.80
2018-11-25T11:50:44.977Z,55.07
2018-11-25T11:53:12.365Z,58.53
2018-11-25T11:55:41.192Z,61.60
2018-11-25T11:58:08.650Z,58.83
2018-11-25T12:00:36.072Z,61.63
2018-11-25T12:03:03.504Z,63.13
2018-11-25T12:05:30.932Z,56.07
2018-11-25T12:07:58.366Z,59.50
2018-11-25T12:10:25.792Z,68.83
2018-11-25T12:12:53.241Z,58.60
2018-11-25T12:15:20.667Z,58.63
2018-11-25T12:17:48.124Z,58.00
2018-11-25T12:20:15.543Z,53.53
2018-11-25T12:22:42.999Z,61.53
2018-11-25T12:25:10.400Z,59.77
2018-11-25T12:27:37.822Z,52.43
2018-11-25T12:30:05.266Z,56.63
2018-11-25T12:32:32.693Z,53.53
2018-11-25T12:35:00.196Z,56.27
2018-11-25T12:37:27.622Z,47.37
2018-11-25T12:39:55.034Z,53.07
2018-11-25T12:42:22.476Z,56.10
2018-11-25T12:44:49.924Z,60.13
2018-11-25T12:47:17.297Z,63.00
2018-11-25T12:49:44.738Z,61.60
2018-11-25T12:52:12.157Z,67.37
2018-11-25T12:54:39.588Z,64.07
2018-11-25T12:57:06.984Z,58.30
2018-11-25T12:59:34.486Z,65.03
2018-11-25T13:02:01.900Z,57.23
2018-11-25T13:04:29.297Z,62.70
2018-11-25T13:06:56.748Z,62.87
2018-11-25T13:09:24.194Z,64.97
2018-11-25T13:11:52.449Z,71.20
2018-11-25T13:14:19.922Z,68.03
2018-11-25T13:16:47.327Z,65.80
2018-11-25T13:19:14.776Z,57.83
2018-11-25T13:21:42.195Z,58.10
2018-11-25T13:24:09.671Z,55.23
2018-11-25T13:26:37.021Z,54.50
2018-11-25T13:29:04.545Z,54.33
2018-11-25T13:31:31.941Z,50.70
2018-11-25T13:33:59.403Z,61.50
2018-11-25T13:36:26.816Z,58.30
2018-11-25T13:38:54.482Z,61.60
2018-11-25T13:41:21.904Z,59.67
2018-11-25T13:43:49.374Z,56.73
2018-11-25T13:46:16.829Z,58.77
2018-11-25T13:48:44.222Z,59.63
2018-11-25T13:51:11.630Z,64.83
2018-11-25T13:53:39.170Z,59.77
2018-11-25T13:56:06.607Z,55.67
2018-11-25T13:58:34.007Z,55.53
2018-11-25T14:01:01.466Z,59.13
2018-11-25T14:03:28.887Z,54.27
2018-11-25T14:05:56.374Z,51.43
2018-11-25T14:08:23.786Z,51.93
2018-11-25T14:10:51.261Z,50.03
2018-11-25T14:13:23.169Z,53.87
2018-11-25T14:15:49.411Z,48.50
2018-11-25T14:18:16.831Z,55.90
2018-11-25T14:20:44.273Z,52.17
2018-11-25T14:23:11.677Z,48.17
2018-11-25T14:25:39.095Z,52.40
2018-11-25T14:28:06.552Z,48.63
2018-11-25T14:30:33.985Z,43.23
2018-11-25T14:33:01.391Z,46.83
2018-11-25T14:35:28.829Z,49.30
2018-11-25T14:37:56.268Z,47.30
2018-11-25T14:40:23.687Z,52.70
2018-11-25T14:42:51.145Z,49.80
2018-11-25T14:45:18.551Z,51.23
2018-11-25T14:47:45.983Z,49.90
2018-11-25T14:50:13.381Z,54.47
2018-11-25T14:52:40.820Z,54.20
2018-11-25T14:55:08.238Z,56.63
2018-11-25T14:57:35.669Z,56.37
2018-11-25T15:00:03.107Z,57.23
2018-11-25T15:02:30.526Z,60.03
2018-11-25T15:04:57.959Z,59.57
2018-11-25T15:07:25.403Z,60.17
2018-11-25T15:09:52.835Z,61.77
2018-11-25T15:12:20.235Z,58.00
2018-11-25T15:14:47.672Z,58.53
2018-11-25T15:17:15.078Z,58.73
2018-11-25T15:19:42.516Z,63.50
2018-11-25T15:22:09.967Z,59.47
2018-11-25T15:24:37.359Z,59.47
2018-11-25T15:27:04.789Z,56.63
2018-11-25T15:29:32.200Z,58.37
2018-11-25T15:31:59.654Z,62.23
2018-11-25T15:34:27.093Z,69.50
2018-11-25T15:36:54.491Z,76.37
2018-11-25T15:39:21.901Z,80.07
2018-11-25T15:41:49.508Z,94.43
2018-11-25T15:44:16.881Z,109.07
2018-11-25T15:46:44.319Z,102.30
2018-11-25T15:49:11.791Z,102.47
2018-11-25T15:51:39.203Z,97.00
2018-11-25T15:54:06.650Z,106.30
2018-11-25T15:56:34.072Z,114.43
2018-11-25T15:59:01.512Z,109.17
2018-11-25T16:01:28.930Z,101.00
2018-11-25T16:03:56.382Z,96.10
2018-11-25T16:06:23.765Z,97.67
2018-11-25T16:08:51.202Z,99.97
2018-11-25T16:11:18.636Z,99.63
2018-11-25T16:13:46.061Z,95.90
2018-11-25T16:16:13.485Z,103.97
2018-11-25T16:18:40.917Z,98.20
2018-11-25T16:21:08.377Z,92.80
2018-11-25T16:23:35.783Z,101.13
2018-11-25T16:26:03.203Z,117.53
2018-11-25T16:28:30.648Z,127.37
2018-11-25T16:30:58.094Z,129.13
2018-11-25T16:33:25.517Z,136.70
2018-11-25T16:35:52.956Z,143.27
2018-11-25T16:38:20.388Z,132.93
2018-11-25T16:40:47.832Z,143.63
2018-11-25T16:43:15.234Z,153.10
2018-11-25T16:45:42.695Z,148.73
2018-11-25T16:48:10.136Z,144.80
2018-11-25T16:50:37.569Z,135.60
2018-11-25T16:53:05.019Z,137.97
2018-11-25T16:55:32.451Z,131.70
2018-11-25T16:57:59.864Z,149.03
2018-11-25T17:00:27.274Z,150.50
2018-11-25T17:02:54.718Z,166.07
2018-11-25T17:05:22.151Z,163.90
2018-11-25T17:07:49.589Z,158.10
2018-11-25T17:10:20.008Z,159.50
2018-11-25T17:12:47.448Z,154.87
2018-11-25T17:15:15.092Z,159.10
2018-11-25T17:17:42.455Z,159.10
2018-11-25T17:20:09.865Z,152.73
2018-11-25T17:22:37.304Z,146.77
2018-11-25T17:25:04.872Z,144.20
2018-11-25T17:27:32.309Z,161.67
2018-11-25T17:29:59.747Z,169.50
2018-11-25T17:32:27.185Z,186.10
2018-11-25T17:34:54.597Z,163.83
2018-11-25T17:37:22.030Z,147.83
2018-11-25T17:39:49.488Z,151.63
2018-11-25T17:42:16.917Z,138.83
2018-11-25T17:44:44.325Z,157.43
2018-11-25T17:47:11.763Z,176.00
2018-11-25T17:49:39.192Z,159.70
2018-11-25T17:52:06.639Z,176.97
2018-11-25T17:54:34.091Z,196.70
2018-11-25T17:57:01.547Z,215.37
2018-11-25T17:59:29.015Z,198.40
2018-11-25T18:01:56.508Z,196.00
2018-11-25T18:04:23.929Z,203.80
2018-11-25T18:06:51.350Z,227.07
2018-11-25T18:09:18.787Z,223.13
2018-11-25T18:11:46.223Z,215.10
2018-11-25T18:14:13.797Z,250.97
2018-11-25T18:16:41.218Z,169.40
2018-11-25T18:19:08.781Z,202.37
2018-11-25T18:21:36.194Z,209.47
2018-11-25T18:24:03.650Z,222.57
2018-11-25T18:26:31.086Z,193.17
2018-11-25T18:28:58.509Z,230.60
2018-11-25T18:31:25.951Z,198.67
2018-11-25T18:33:53.405Z,233.60
2018-11-25T18:36:20.831Z,228.93
2018-11-25T18:38:48.273Z,166.30
2018-11-25T18:41:15.715Z,196.43
2018-11-25T18:43:43.163Z,184.33
2018-11-25T18:46:10.609Z,207.83
2018-11-25T18:48:38.013Z,181.50
2018-11-25T18:51:05.471Z,237.17
2018-11-25T18:53:32.907Z,198.17
2018-11-25T18:56:00.372Z,219.17
2018-11-25T18:58:27.829Z,240.77
2018-11-25T19:00:55.249Z,242.73
2018-11-25T19:03:22.702Z,236.87
2018-11-25T19:05:50.119Z,268.07
2018-11-25T19:08:17.558Z,247.97
2018-11-25T19:10:45.028Z,194.53
2018-11-25T19:13:12.444Z,175.33
2018-11-25T19:15:39.902Z,171.20
2018-11-25T19:18:07.352Z,178.67
2018-11-25T19:20:34.792Z,222.50
2018-11-25T19:23:02.242Z,193.13
2018-11-25T19:25:29.680Z,217.57
2018-11-25T19:27:57.172Z,201.33
2018-11-25T19:30:26.589Z,181.00
2018-11-25T19:32:52.051Z,170.43
2018-11-25T19:35:19.469Z,185.10
2018-11-25T19:37:46.890Z,238.70
2018-11-25T19:40:14.338Z,206.73
2018-11-25T19:42:41.791Z,244.93
2018-11-25T19:45:09.257Z,262.53
2018-11-25T19:47:36.677Z,223.30
2018-11-25T19:50:04.309Z,213.97
2018-11-25T19:52:31.559Z,239.23
2018-11-25T19:54:59.017Z,269.93
2018-11-25T19:57:26.442Z,214.40
2018-11-25T19:59:56.734Z,295.67
2018-11-25T20:02:24.113Z,246.93
2018-11-25T20:04:51.582Z,204.70
2018-11-25T20:07:19.032Z,217.93
2018-11-25T20:09:46.455Z,198.30
2018-11-25T20:12:13.899Z,187.20
2018-11-25T20:14:41.301Z,206.13
2018-11-25T20:17:24.070Z,227.83
2018-11-25T20:19:51.503Z,188.10
2018-11-25T20:22:18.954Z,182.90
2018-11-25T20:24:46.369Z,243.83
2018-11-25T20:27:13.817Z,209.00
2018-11-25T20:29:41.255Z,255.57
2018-11-25T20:32:08.708Z,300.63
2018-11-25T20:34:36.139Z,207.53
2018-11-25T20:37:03.624Z,184.90
2018-11-25T20:39:31.008Z,262.30
2018-11-25T20:41:58.454Z,280.20
2018-11-25T20:44:25.861Z,276.40
2018-11-25T20:47:05.088Z,233.17
2018-11-25T20:49:32.505Z,264.10
2018-11-25T20:51:59.975Z,236.80
2018-11-25T20:54:27.381Z,292.20
2018-11-25T20:56:54.815Z,233.63
2018-11-25T20:59:22.231Z,251.80
2018-11-25T21:01:49.667Z,246.53
2018-11-25T21:04:17.109Z,229.67
2018-11-25T21:06:44.578Z,223.30
2018-11-25T21:09:11.953Z,223.00
2018-11-25T21:11:39.406Z,282.90
2018-11-25T21:14:06.824Z,265.47
2018-11-25T21:16:34.260Z,211.87
2018-11-25T21:19:02.240Z,220.07
2018-11-25T21:21:29.612Z,214.87
2018-11-25T21:23:57.064Z,282.83
2018-11-25T21:26:24.458Z,219.43
2018-11-25T21:28:51.938Z,256.00
2018-11-25T21:31:19.344Z,209.97
2018-11-25T21:33:46.782Z,202.67
2018-11-25T21:36:14.215Z,231.60
2018-11-25T21:38:41.663Z,229.50
2018-11-25T21:41:09.093Z,242.37
2018-11-25T21:43:37.329Z,250.07
2018-11-25T21:46:07.516Z,205.07
2018-11-25T21:48:34.956Z,207.90
2018-11-25T21:51:02.375Z,226.80
2018-11-25T21:53:29.784Z,207.03
2018-11-25T21:55:57.216Z,235.03
2018-11-25T21:58:28.774Z,217.47
2018-11-25T22:00:53.990Z,242.67
2018-11-25T22:03:21.389Z,215.07
2018-11-25T22:05:48.835Z,230.57
2018-11-25T22:08:16.239Z,228.73
2018-11-25T22:10:43.688Z,217.10
2018-11-25T22:13:11.153Z,217.33
2018-11-25T22:15:38.570Z,225.13
2018-11-25T22:18:06.022Z,249.20
2018-11-25T22:20:33.445Z,207.17
2018-11-25T22:23:00.940Z,244.40
2018-11-25T22:25:28.353Z,212.03
2018-11-25T22:27:55.778Z,243.37
2018-11-25T22:30:23.193Z,256.60
2018-11-25T22:32:50.651Z,241.57
2018-11-25T22:35:18.162Z,230.33
2018-11-25T22:37:45.583Z,236.97
2018-11-25T22:40:13.124Z,248.00
2018-11-25T22:42:40.536Z,259.23
2018-11-25T22:45:07.985Z,235.63
2018-11-25T22:47:35.397Z,252.70
2018-11-25T22:50:02.837Z,246.37
2018-11-25T22:52:30.281Z,271.07
2018-11-25T22:54:57.687Z,283.47
2018-11-25T22:57:27.973Z,266.97
2018-11-25T22:59:55.385Z,250.73
2018-11-25T23:02:22.824Z,235.77
2018-11-25T23:05:14.736Z,264.10
2018-11-25T23:07:42.289Z,256.33
2018-11-25T23:10:09.703Z,264.20
2018-11-25T23:12:37.482Z,212.87
2018-11-25T23:15:07.491Z,272.90
2018-11-25T23:17:34.939Z,247.90
2018-11-25T23:20:02.364Z,217.50
2018-11-25T23:22:29.806Z,245.07
2018-11-25T23:24:57.235Z,228.53
2018-11-25T23:27:24.637Z,219.63
2018-11-25T23:29:52.089Z,255.43
2018-11-25T23:32:19.541Z,236.93
2018-11-25T23:34:54.870Z,205.13
2018-11-25T23:37:22.314Z,208.17
2018-11-25T23:39:49.726Z,221.67
2018-11-25T23:42:17.191Z,246.70
2018-11-25T23:44:44.606Z,207.50
2018-11-25T23:47:12.030Z,226.67
2018-11-25T23:49:39.462Z,188.50
2018-11-25T23:52:06.885Z,225.87
2018-11-25T23:54:37.301Z,215.20
2018-11-25T23:57:04.722Z,212.43
2018-11-25T23:59:32.162Z,218.43
